Time;durP1;ratioP1;P1;durP2;ratioP2;P2;SDS_P1;SDS_P2;PMS_P1;PMS_P2;Temp;Humidity;BMP_temperature;BMP_pressure;BME280_temperature;BME280_humidity;BME280_pressure;Samples;Min_cycle;Max_cycle;Signal;HPM_P1;HPM_P2
2021/10/09 00:00:27;;;;;;;;;17.50;14.75;;;;;16.56;60.53;102161.13;6373584;22;45242;-64
2021/10/09 00:02:53;;;;;;;;;14.75;14.00;;;;;16.50;60.76;102154.13;6373317;22;45984;-64
2021/10/09 00:05:18;;;;;;;;;16.50;15.00;;;;;16.57;60.72;102162.88;6373525;22;45261;-64
2021/10/09 00:07:43;;;;;;;;;15.75;14.75;;;;;16.49;60.41;102157.78;6373324;22;45190;-64
2021/10/09 00:10:11;;;;;;;;;15.25;13.75;;;;;16.50;60.56;102164.91;6372776;22;45579;-65
2021/10/09 00:12:36;;;;;;;;;15.50;15.00;;;;;16.37;60.63;102145.59;6346120;22;45486;-64
2021/10/09 00:15:03;;;;;;;;;14.25;13.75;;;;;16.47;60.74;102159.63;6373578;22;45149;-64
2021/10/09 00:17:29;;;;;;;;;18.25;15.25;;;;;16.40;60.75;102147.28;6372868;22;45286;-64
2021/10/09 00:19:55;;;;;;;;;14.50;14.50;;;;;16.47;60.90;102163.22;6373221;22;45459;-64
2021/10/09 00:22:20;;;;;;;;;17.00;16.00;;;;;16.41;60.81;102151.75;6344890;22;47098;-64
2021/10/09 00:24:46;;;;;;;;;17.50;15.00;;;;;16.40;60.86;102145.47;6345080;22;46034;-65
2021/10/09 00:27:13;;;;;;;;;17.00;17.00;;;;;16.38;60.87;102136.56;6373597;22;45422;-65
2021/10/09 00:29:38;;;;;;;;;16.00;16.00;;;;;16.44;60.78;102149.84;6373051;22;45246;-65
2021/10/09 00:32:04;;;;;;;;;12.75;11.75;;;;;16.42;60.89;102154.41;6372345;22;45544;-64
2021/10/09 00:34:29;;;;;;;;;17.75;17.75;;;;;16.41;60.98;102151.75;6373354;22;45738;-64
2021/10/09 00:36:54;;;;;;;;;16.00;14.75;;;;;16.31;60.78;102143.09;6373532;22;45207;-64
2021/10/09 00:39:20;;;;;;;;;17.75;17.50;;;;;16.35;60.91;102151.97;6372925;22;45494;-64
2021/10/09 00:41:45;;;;;;;;;20.00;17.25;;;;;16.30;61.11;102142.25;6372780;22;46409;-64
2021/10/09 00:44:13;;;;;;;;;15.75;15.25;;;;;16.21;61.03;102133.59;6373301;22;45138;-64
2021/10/09 00:46:40;;;;;;;;;16.25;14.50;;;;;16.25;61.10;102140.63;6373078;22;45330;-65
2021/10/09 00:49:07;;;;;;;;;18.00;14.50;;;;;16.16;61.16;102128.34;6372743;22;45444;-64
2021/10/09 00:51:33;;;;;;;;;18.00;18.00;;;;;16.28;61.13;102152.16;6373201;22;45904;-64
2021/10/09 00:54:00;;;;;;;;;15.00;14.00;;;;;15.96;60.99;102094.00;6344427;22;45269;-64
2021/10/09 00:56:33;;;;;;;;;17.50;15.25;;;;;16.28;60.97;102148.59;6372833;22;45328;-64
2021/10/09 00:59:00;;;;;;;;;16.75;15.50;;;;;15.93;61.13;102097.66;6344360;22;45464;-64
2021/10/09 01:01:25;;;;;;;;;16.75;16.50;;;;;16.08;60.95;102115.13;6344209;22;47015;-64
2021/10/09 01:03:51;;;;;;;;;17.75;17.25;;;;;16.24;61.13;102145.13;6344536;22;45266;-64
2021/10/09 01:06:17;;;;;;;;;15.25;12.75;;;;;16.06;61.29;102113.44;6371568;22;45180;-65
2021/10/09 01:08:45;;;;;;;;;15.50;15.50;;;;;16.15;61.07;102133.78;6372296;22;45223;-64
2021/10/09 01:11:10;;;;;;;;;17.75;16.00;;;;;16.15;61.24;102128.38;6371342;22;48404;-64
2021/10/09 01:13:36;;;;;;;;;17.00;15.25;;;;;16.18;61.24;102131.84;6372964;22;45344;-64
2021/10/09 01:16:01;;;;;;;;;21.75;17.50;;;;;15.97;60.95;102114.63;6344162;22;45349;-64
2021/10/09 01:18:27;;;;;;;;;16.50;15.75;;;;;16.04;61.07;102118.88;6372612;22;45503;-64
2021/10/09 01:21:04;;;;;;;;;16.00;16.00;;;;;16.05;60.86;102120.59;6372214;22;46486;-64
2021/10/09 01:23:30;;;;;;;;;16.50;16.00;;;;;15.98;61.17;102115.50;6344220;22;45361;-65
2021/10/09 01:25:56;;;;;;;;;17.00;16.00;;;;;15.94;60.98;102114.72;6373334;22;45162;-64
2021/10/09 01:28:22;;;;;;;;;18.75;18.75;;;;;16.11;61.05;102143.78;6344120;22;45526;-64
2021/10/09 01:30:47;;;;;;;;;17.75;15.75;;;;;15.81;61.28;102098.06;6372531;22;45283;-65
2021/10/09 01:33:14;;;;;;;;;17.00;16.25;;;;;16.07;61.38;102140.31;6372958;22;45445;-64
2021/10/09 01:35:49;;;;;;;;;16.25;16.25;;;;;15.84;61.09;102105.19;6344637;22;45275;-64
2021/10/09 01:38:14;;;;;;;;;16.25;15.50;;;;;15.79;60.92;102110.72;6372345;22;45395;-64
2021/10/09 01:40:40;;;;;;;;;18.75;17.50;;;;;15.76;61.33;102091.97;6373021;22;45297;-64
2021/10/09 01:43:13;;;;;;;;;17.25;16.25;;;;;16.07;61.39;102144.78;6373005;22;45203;-64
2021/10/09 01:45:41;;;;;;;;;19.50;17.00;;;;;16.07;61.27;102137.63;6344552;22;45303;-64
2021/10/09 01:48:07;;;;;;;;;17.25;16.25;;;;;16.01;61.22;102132.44;6343195;22;45436;-64
2021/10/09 01:50:33;;;;;;;;;18.00;18.00;;;;;15.79;61.39;102091.00;6344174;22;48116;-64
2021/10/09 01:52:59;;;;;;;;;17.50;16.00;;;;;16.02;61.17;102131.50;6372865;22;45264;-64
2021/10/09 01:55:25;;;;;;;;;21.75;18.50;;;;;16.00;61.28;102138.72;6371007;22;45129;-64
2021/10/09 01:57:51;;;;;;;;;14.50;14.50;;;;;15.95;61.21;102143.38;6372530;22;45143;-64
2021/10/09 02:00:16;;;;;;;;;21.75;20.50;;;;;15.90;61.13;102134.59;6372261;22;45700;-64
2021/10/09 02:02:42;;;;;;;;;22.50;21.00;;;;;15.92;61.55;102133.63;6372666;22;45228;-64
2021/10/09 02:05:07;;;;;;;;;17.75;16.50;;;;;15.93;61.70;102135.34;6371133;22;45120;-64
2021/10/09 02:07:34;;;;;;;;;19.50;16.50;;;;;15.74;61.25;102091.97;6373113;22;45231;-64
2021/10/09 02:10:00;;;;;;;;;18.25;18.25;;;;;15.95;61.21;102137.13;6373629;22;46122;-64
2021/10/09 02:12:26;;;;;;;;;19.25;18.75;;;;;15.63;61.21;102077.09;6345328;22;45267;-64
2021/10/09 02:15:01;;;;;;;;;22.75;19.75;;;;;15.86;61.40;102112.25;6374240;22;45264;-65
2021/10/09 02:25:44;;;;;;;;;21.25;20.50;;;;;15.89;61.20;102128.31;6350401;22;45360;-64
2021/10/09 02:28:10;;;;;;;;;21.25;19.25;;;;;15.93;61.08;102119.19;6345185;22;45353;-64
2021/10/09 02:30:38;;;;;;;;;20.75;20.25;;;;;15.72;61.12;102087.59;6345091;22;48213;-64
2021/10/09 02:33:04;;;;;;;;;24.00;22.25;;;;;15.55;61.28;102069.25;6344978;22;46005;-64
2021/10/09 02:35:29;;;;;;;;;19.75;18.00;;;;;15.67;61.47;102090.41;6345659;22;45338;-64
2021/10/09 02:37:54;;;;;;;;;21.75;20.75;;;;;15.67;61.07;102100.28;6371095;22;45310;-64
2021/10/09 02:40:20;;;;;;;;;24.50;19.50;;;;;15.65;60.97;102091.38;6373878;22;45376;-64
2021/10/09 02:42:45;;;;;;;;;22.25;20.00;;;;;15.68;61.21;102112.81;6374033;22;45250;-64
2021/10/09 02:45:11;;;;;;;;;20.75;20.75;;;;;15.57;60.98;102095.22;6374193;22;45325;-64
2021/10/09 02:47:36;;;;;;;;;21.00;21.00;;;;;15.60;61.48;102099.59;6317941;22;45264;-64
2021/10/09 02:50:03;;;;;;;;;22.75;20.25;;;;;15.53;61.50;102082.78;6373669;22;45355;-64
2021/10/09 02:52:29;;;;;;;;;18.25;18.00;;;;;15.76;61.24;102115.31;6373649;22;45440;-64
2021/10/09 02:54:54;;;;;;;;;19.00;18.00;;;;;15.86;61.39;102127.56;6373765;22;45265;-64
2021/10/09 02:57:20;;;;;;;;;21.00;18.25;;;;;15.66;61.45;102091.34;6371613;22;45245;-64
2021/10/09 02:59:45;;;;;;;;;22.00;21.25;;;;;15.84;61.36;102124.91;6345178;22;47217;-65
2021/10/09 03:02:11;;;;;;;;;24.50;22.50;;;;;15.80;61.58;102123.22;6373395;22;45201;-64
2021/10/09 03:04:36;;;;;;;;;24.00;24.00;;;;;15.51;61.54;102068.50;6345272;22;45158;-64
2021/10/09 03:07:02;;;;;;;;;20.50;19.75;;;;;15.66;61.51;102098.53;6373492;22;45099;-64
2021/10/09 03:09:27;;;;;;;;;23.75;23.25;;;;;15.61;61.52;102095.13;6344166;22;47415;-64
2021/10/09 03:11:52;;;;;;;;;19.75;19.75;;;;;15.65;61.38;102097.69;6373823;22;45165;-64
2021/10/09 03:14:18;;;;;;;;;21.50;20.50;;;;;15.71;61.61;102107.34;6373906;22;45153;-64
2021/10/09 03:16:45;;;;;;;;;20.00;18.75;;;;;15.63;61.53;102098.63;6344433;22;45499;-64
2021/10/09 03:19:11;;;;;;;;;19.25;17.25;;;;;15.54;61.55;102086.38;6372696;22;46135;-64
2021/10/09 03:21:36;;;;;;;;;21.25;20.50;;;;;15.61;61.62;102098.69;6373644;22;45347;-64
2021/10/09 03:24:02;;;;;;;;;21.00;19.00;;;;;15.61;61.35;102095.13;6373655;22;45614;-64
2021/10/09 03:26:27;;;;;;;;;19.50;19.50;;;;;15.52;61.49;102077.47;6344904;22;45499;-64
2021/10/09 03:28:52;;;;;;;;;22.25;20.50;;;;;15.62;61.47;102097.78;6373087;22;45284;-64
2021/10/09 03:31:18;;;;;;;;;25.00;23.75;;;;;15.50;61.74;102093.66;6344231;22;45390;-64
2021/10/09 03:33:43;;;;;;;;;21.75;20.75;;;;;15.58;61.48;102106.84;6372083;22;45495;-64
2021/10/09 03:36:09;;;;;;;;;25.50;22.00;;;;;15.67;61.70;102124.50;6373698;22;45312;-64
2021/10/09 03:38:36;;;;;;;;;22.50;22.50;;;;;15.53;61.70;102101.59;6344829;22;47296;-64
2021/10/09 03:41:10;;;;;;;;;25.50;23.75;;;;;15.69;61.57;102123.56;6371480;22;45178;-64
2021/10/09 03:43:36;;;;;;;;;21.25;20.75;;;;;15.48;61.74;102092.81;6371764;22;45243;-64
2021/10/09 03:53:35;;;;;;;;;21.50;21.50;;;;;15.63;61.73;102118.34;6373552;22;45147;-64
2021/10/09 03:56:01;;;;;;;;;18.00;17.50;;;;;15.55;61.87;102106.94;6344803;22;45192;-64
2021/10/09 03:58:27;;;;;;;;;25.75;24.00;;;;;15.62;61.85;102115.69;6373160;22;45288;-64
2021/10/09 04:00:53;;;;;;;;;21.00;20.00;;;;;15.40;61.58;102070.63;6344254;22;45404;-64
2021/10/09 04:03:18;;;;;;;;;21.50;21.00;;;;;15.57;61.56;102110.50;6345320;22;45427;-64
2021/10/09 04:05:44;;;;;;;;;22.00;19.25;;;;;15.63;61.74;102121.03;6373297;22;45397;-64
2021/10/09 04:08:09;;;;;;;;;21.25;19.75;;;;;15.49;61.59;102097.25;6344230;22;46782;-64
2021/10/09 04:10:36;;;;;;;;;23.75;21.00;;;;;15.46;61.79;102104.56;6373304;22;45391;-64
2021/10/09 04:13:03;;;;;;;;;20.50;19.25;;;;;15.42;61.58;102086.72;6371772;22;45261;-64
2021/10/09 04:15:29;;;;;;;;;20.75;19.50;;;;;15.44;61.62;102107.28;6344558;22;45295;-64
2021/10/09 04:17:55;;;;;;;;;24.75;22.25;;;;;15.54;61.63;102111.47;6344323;22;48117;-64
2021/10/09 04:20:21;;;;;;;;;26.75;23.50;;;;;15.42;61.51;102098.41;6373383;22;45186;-64
2021/10/09 04:22:46;;;;;;;;;26.25;25.00;;;;;15.48;61.68;102117.03;6345176;22;45183;-64
2021/10/09 04:25:12;;;;;;;;;24.75;23.50;;;;;15.32;61.85;102094.22;6344595;22;45465;-64
2021/10/09 04:27:38;;;;;;;;;27.25;26.25;;;;;15.31;61.66;102092.47;6373007;22;45267;-64
2021/10/09 04:30:05;;;;;;;;;24.75;24.50;;;;;15.46;61.83;102118.88;6344728;22;45399;-65
2021/10/09 04:32:30;;;;;;;;;18.00;17.75;;;;;15.31;61.91;102093.31;6372803;22;45305;-64
2021/10/09 04:34:56;;;;;;;;;25.50;22.75;;;;;15.28;62.02;102092.53;6373236;22;45428;-64
2021/10/09 04:37:22;;;;;;;;;25.75;23.50;;;;;15.49;61.72;102124.19;6373037;22;45270;-64
2021/10/09 04:39:47;;;;;;;;;26.50;24.25;;;;;15.34;61.58;102101.31;6371415;22;45309;-64
2021/10/09 04:42:13;;;;;;;;;26.00;24.25;;;;;15.26;61.58;102084.53;6373619;22;45160;-64
2021/10/09 04:44:38;;;;;;;;;23.25;21.50;;;;;15.28;61.70;102085.34;6373498;22;45333;-64
2021/10/09 04:47:04;;;;;;;;;27.25;24.75;;;;;15.34;61.73;102100.44;6344274;22;47155;-64
2021/10/09 04:49:30;;;;;;;;;28.75;22.75;;;;;15.15;61.69;102081.28;6344652;22;45274;-64
2021/10/09 04:51:56;;;;;;;;;28.25;27.50;;;;;15.27;61.70;102105.13;6345045;22;45123;-64
2021/10/09 04:54:21;;;;;;;;;29.25;27.25;;;;;15.32;61.88;102107.69;6373180;22;45161;-64
2021/10/09 04:56:46;;;;;;;;;26.00;25.00;;;;;15.11;61.89;102076.94;6373313;22;46431;-64
2021/10/09 04:59:12;;;;;;;;;29.25;29.25;;;;;14.96;61.90;102054.06;6344377;22;45307;-64
2021/10/09 05:01:37;;;;;;;;;29.50;27.75;;;;;15.07;62.26;102068.06;6373274;22;45241;-64
2021/10/09 05:04:03;;;;;;;;;26.25;25.25;;;;;15.09;61.71;102076.97;6344650;22;45207;-64
2021/10/09 05:06:28;;;;;;;;;26.75;24.75;;;;;15.05;61.93;102074.41;6373012;22;45890;-64
2021/10/09 05:08:54;;;;;;;;;28.00;26.50;;;;;15.10;61.99;102081.44;6343941;22;45424;-64
2021/10/09 05:11:20;;;;;;;;;28.00;26.50;;;;;15.23;62.27;102107.94;6371276;22;45376;-64
2021/10/09 05:13:45;;;;;;;;;24.75;23.25;;;;;14.87;61.73;102043.56;6344527;22;46177;-64
2021/10/09 05:16:11;;;;;;;;;27.75;25.75;;;;;15.18;62.08;102102.69;6372750;22;46013;-64
2021/10/09 05:18:36;;;;;;;;;35.00;29.00;;;;;14.91;62.07;102064.94;6372628;22;45328;-64
2021/10/09 05:21:02;;;;;;;;;28.75;26.75;;;;;14.97;62.11;102074.66;6373166;22;45339;-64
2021/10/09 05:23:30;;;;;;;;;34.00;28.50;;;;;14.92;62.07;102064.03;6372623;22;45302;-64
2021/10/09 05:25:56;;;;;;;;;25.75;24.50;;;;;15.12;62.21;102097.53;6344243;22;47145;-64
2021/10/09 05:28:27;;;;;;;;;30.00;28.00;;;;;14.85;62.16;102048.13;6343891;22;45329;-64
2021/10/09 05:30:56;;;;;;;;;28.25;28.00;;;;;15.05;62.00;102101.31;6343751;22;45266;-64
2021/10/09 05:35:57;;;;;;;;;29.25;26.75;;;;;14.77;62.00;102049.22;6372760;22;45401;-64
2021/10/09 05:38:22;;;;;;;;;29.25;27.25;;;;;15.11;62.04;102107.38;6372484;22;45499;-64
2021/10/09 05:40:48;;;;;;;;;36.25;30.00;;;;;14.95;62.20;102085.47;6370720;22;45556;-65
2021/10/09 05:43:15;;;;;;;;;36.00;32.00;;;;;14.93;62.24;102083.72;6343828;22;45309;-64
2021/10/09 05:45:40;;;;;;;;;26.50;26.25;;;;;15.04;62.17;102113.88;6372546;22;45358;-64
2021/10/09 05:48:07;;;;;;;;;29.00;28.50;;;;;14.92;62.25;102093.59;6344254;22;45404;-64
2021/10/09 05:50:43;;;;;;;;;31.75;30.50;;;;;14.84;62.29;102084.00;6344489;22;45447;-64
2021/10/09 05:55:52;;;;;;;;;31.75;29.25;;;;;14.84;62.15;102090.25;6372628;22;45357;-65
2021/10/09 05:58:24;;;;;;;;;33.75;31.00;;;;;14.89;61.97;102095.50;6371058;22;45598;-64
2021/10/09 07:29:29;;;;;;;;;36.50;31.25;;;;;14.76;62.23;102171.09;6288049;22;46798;-64
2021/10/09 07:31:55;;;;;;;;;35.75;32.50;;;;;14.83;62.06;102185.25;6320565;22;45226;-64
2021/10/09 07:34:20;;;;;;;;;32.00;31.00;;;;;14.84;62.16;102191.53;6339109;22;45373;-64
2021/10/09 07:36:46;;;;;;;;;29.75;29.75;;;;;14.82;62.25;102178.13;6306892;22;45978;-64
2021/10/09 07:39:12;;;;;;;;;31.75;29.00;;;;;14.88;61.92;102195.88;6310783;22;45404;-65
2021/10/09 07:41:37;;;;;;;;;32.50;31.50;;;;;14.81;62.07;102181.72;6312465;22;45441;-64
2021/10/09 07:44:03;;;;;;;;;32.00;30.25;;;;;14.68;62.09;102170.41;6339814;22;45508;-64
2021/10/09 07:46:29;;;;;;;;;34.75;31.00;;;;;14.70;62.15;102171.28;6339111;22;45637;-64
2021/10/09 07:48:54;;;;;;;;;31.00;29.75;;;;;14.58;62.09;102158.13;6311658;22;45534;-64
2021/10/09 07:51:19;;;;;;;;;34.50;32.25;;;;;14.82;62.34;102192.44;6338765;22;45260;-64
2021/10/09 07:53:45;;;;;;;;;40.50;31.75;;;;;14.82;61.92;102200.50;6340638;22;45196;-65
2021/10/09 07:56:10;;;;;;;;;31.25;30.75;;;;;14.83;62.06;102204.06;6340261;22;45412;-64
2021/10/09 07:58:36;;;;;;;;;35.75;31.00;;;;;14.61;61.91;102171.53;6307917;22;45805;-64
2021/10/09 08:01:01;;;;;;;;;28.25;28.00;;;;;14.77;62.15;102209.63;6339245;22;45695;-64
2021/10/09 08:03:29;;;;;;;;;33.25;31.25;;;;;14.77;62.45;102215.88;6340245;22;45585;-65
2021/10/09 08:05:55;;;;;;;;;39.00;34.00;;;;;14.94;62.13;102234.25;6340561;22;46177;-62
2021/10/09 08:08:21;;;;;;;;;33.75;31.00;;;;;14.92;62.11;102237.91;6340402;22;45234;-63
2021/10/09 08:10:47;;;;;;;;;41.00;34.00;;;;;14.98;62.19;102249.41;6341302;22;45360;-64
2021/10/09 08:13:15;;;;;;;;;37.75;32.50;;;;;14.87;62.10;102229.97;6312255;22;45358;-63
2021/10/09 08:15:41;;;;;;;;;34.00;31.00;;;;;15.04;62.26;102244.78;6339847;22;46555;-64
2021/10/09 08:18:07;;;;;;;;;38.75;34.00;;;;;14.86;62.42;102209.38;6312383;22;45714;-64
2021/10/09 08:20:32;;;;;;;;;35.25;33.25;;;;;14.87;62.24;102205.78;6341193;22;45131;-64
2021/10/09 08:23:04;;;;;;;;;38.50;32.25;;;;;15.05;62.14;102242.03;6340694;22;45334;-64
2021/10/09 08:38:48;;;;;;;;;34.75;31.50;;;;;15.08;61.47;102225.78;6339354;22;45333;-65
2021/10/09 08:41:14;;;;;;;;;35.50;32.50;;;;;15.25;61.86;102229.81;6289050;22;45225;-65
2021/10/09 08:43:49;;;;;;;;;36.00;32.75;;;;;15.30;61.75;102242.25;6340895;22;45476;-65
2021/10/09 08:46:16;;;;;;;;;34.50;32.00;;;;;14.97;61.75;102172.31;6339714;22;45914;-65
2021/10/09 08:48:49;;;;;;;;;38.25;34.00;;;;;15.38;61.68;102237.53;6311841;22;45551;-65
2021/10/09 08:51:20;;;;;;;;;37.25;31.75;;;;;15.28;61.49;102216.28;6311668;22;45511;-65
2021/10/09 08:53:45;;;;;;;;;34.25;32.00;;;;;15.32;61.51;102224.25;6340220;22;45171;-65
2021/10/09 08:56:30;;;;;;;;;38.00;32.75;;;;;15.36;61.30;102225.91;6312161;22;45442;-65
2021/10/09 08:59:31;;;;;;;;;41.75;35.25;;;;;15.33;61.16;102209.84;6311487;22;45300;-65
2021/10/09 09:47:38;;;;;;;;;45.00;37.00;;;;;15.74;60.56;102194.28;6334314;22;46343;-70
2021/10/09 09:50:06;;;;;;;;;37.50;34.00;;;;;15.84;61.07;102207.50;6372587;22;45380;-69
2021/10/09 09:52:35;;;;;;;;;36.50;33.00;;;;;15.72;60.55;102179.13;6343722;22;46600;-70
2021/10/09 09:55:05;;;;;;;;;34.50;31.00;;;;;15.62;60.53;102162.38;6343958;22;45347;-69
2021/10/09 09:58:01;;;;;;;;;;;;;;;;;;;;;
2021/10/09 10:00:40;;;;;;;;;41.50;34.75;;;;;16.02;60.36;102206.91;6370598;22;73909;-69
2021/10/09 10:03:08;;;;;;;;;37.00;31.00;;;;;16.04;60.68;102207.75;6343526;22;46346;-68
2021/10/09 10:06:16;;;;;;;;;;;;;;;;;;;;;
2021/10/09 10:08:44;;;;;;;;;36.25;32.50;;;;;15.98;59.99;102180.13;6362709;22;68885;-66
2021/10/09 10:11:28;;;;;;;;;34.00;31.50;;;;;15.69;60.14;102134.31;6372139;22;45172;-71
2021/10/09 10:13:56;;;;;;;;;37.50;32.75;;;;;16.07;59.54;102191.50;6371769;22;46259;-63
2021/10/09 10:16:23;;;;;;;;;38.25;31.25;;;;;16.15;59.58;102203.81;6371994;22;45583;-63
2021/10/09 10:18:50;;;;;;;;;42.75;36.00;;;;;16.16;59.60;102194.81;6372248;22;45310;-65
2021/10/09 10:21:37;;;;;;;;;35.50;29.50;;;;;16.18;59.50;102192.94;6372490;22;45246;-65
2021/10/09 10:24:04;;;;;;;;;41.75;36.00;;;;;16.21;59.52;102196.41;6316141;22;47207;-65
2021/10/09 10:26:31;;;;;;;;;36.75;32.75;;;;;16.33;59.38;102189.75;6344170;22;45363;-65
2021/10/09 10:28:56;;;;;;;;;34.50;31.50;;;;;16.35;59.22;102195.94;6373605;22;45208;-65
2021/10/09 10:31:23;;;;;;;;;37.33;33.00;;;;;16.32;59.58;102187.97;6373956;22;45368;-65
2021/10/09 10:33:59;;;;;;;;;34.50;32.00;;;;;16.38;59.70;102187.75;6373694;22;45387;-65
2021/10/09 10:36:37;;;;;;;;;33.00;31.00;;;;;16.41;59.33;102195.75;6373583;22;45493;-65
2021/10/09 10:39:03;;;;;;;;;38.25;33.00;;;;;16.43;59.27;102185.78;6373567;22;45136;-65
2021/10/09 10:41:49;;;;;;;;;32.00;29.50;;;;;16.52;58.41;102198.06;6373808;22;45420;-65
2021/10/09 10:44:46;;;;;;;;;30.00;28.50;;;;;16.55;58.32;102192.56;6373860;22;45189;-65
2021/10/09 10:47:45;;;;;;;;;34.00;29.25;;;;;16.60;58.87;102195.13;6373442;22;45588;-65
2021/10/09 10:53:30;;;;;;;;;35.00;30.25;;;;;16.69;58.05;102189.44;6373508;22;45314;-65
2021/10/09 10:56:07;;;;;;;;;31.50;30.50;;;;;16.74;57.52;102189.25;6344867;22;47282;-65
2021/10/09 10:58:33;;;;;;;;;31.50;29.00;;;;;16.73;57.83;102185.66;6373309;22;45415;-65
2021/10/09 11:01:22;;;;;;;;;28.50;26.50;;;;;16.80;57.78;102172.84;6373967;22;45257;-65
2021/10/09 11:03:53;;;;;;;;;26.25;25.25;;;;;16.84;57.32;102179.91;6373945;22;45084;-65
2021/10/09 11:06:20;;;;;;;;;30.00;27.75;;;;;16.89;57.37;102174.38;6373266;22;46228;-65
2021/10/09 11:08:47;;;;;;;;;31.00;27.00;;;;;16.93;57.79;102179.59;6344787;22;45271;-65
2021/10/09 11:11:13;;;;;;;;;30.00;29.50;;;;;16.93;57.33;102168.81;6374048;22;45070;-65
2021/10/09 11:13:40;;;;;;;;;27.75;26.00;;;;;17.03;56.88;102182.84;6345212;22;45409;-65
2021/10/09 11:16:06;;;;;;;;;26.00;21.25;;;;;17.06;56.28;102171.03;6373181;22;45316;-65
2021/10/09 11:18:52;;;;;;;;;27.75;26.00;;;;;17.08;56.34;102170.06;6373403;22;45298;-65
2021/10/09 11:21:18;;;;;;;;;29.50;26.00;;;;;17.04;56.53;102166.59;6345310;22;45332;-65
2021/10/09 11:23:56;;;;;;;;;20.00;20.00;;;;;17.11;55.34;102169.09;6373707;22;45386;-65
2021/10/09 11:26:23;;;;;;;;;29.75;26.50;;;;;17.13;55.17;102164.50;6373821;22;46062;-65
2021/10/09 11:29:09;;;;;;;;;26.50;26.00;;;;;17.18;54.84;102173.31;6373598;22;45370;-65
2021/10/09 11:31:34;;;;;;;;;23.00;21.00;;;;;17.21;54.77;102181.28;6344991;22;45143;-65
2021/10/09 11:34:04;;;;;;;;;22.25;21.25;;;;;17.23;54.61;102174.88;6373758;22;45159;-65
2021/10/09 11:36:37;;;;;;;;;18.25;17.50;;;;;17.29;54.28;102184.59;6344786;22;48440;-65
2021/10/09 11:39:16;;;;;;;;;22.00;22.00;;;;;17.32;54.26;102181.75;6372500;22;45543;-65
2021/10/09 11:41:45;;;;;;;;;12.25;12.25;;;;;17.36;54.11;102180.72;6347203;22;45307;-65
2021/10/09 11:44:24;;;;;;;;;22.25;21.00;;;;;17.39;54.25;102166.19;6373630;22;46218;-65
2021/10/09 11:55:27;;;;;;;;;25.00;23.50;;;;;17.48;53.86;102144.25;6341448;22;45345;-65
2021/10/09 11:57:54;;;;;;;;;23.25;21.00;;;;;17.58;53.97;102159.16;6340697;22;46053;-65
2021/10/09 12:00:28;;;;;;;;;22.75;22.00;;;;;17.62;54.37;102164.44;6341443;22;45432;-65
2021/10/09 12:02:57;;;;;;;;;23.50;22.50;;;;;17.64;53.58;102165.25;6342027;22;45298;-65
2021/10/09 12:05:26;;;;;;;;;25.00;24.25;;;;;17.62;53.67;102157.22;6341486;22;45298;-65
2021/10/09 12:08:15;;;;;;;;;21.00;19.50;;;;;17.69;54.08;102156.03;6340209;22;46286;-65
2021/10/09 12:10:41;;;;;;;;;20.50;20.00;;;;;17.71;53.66;102153.28;6341206;22;45191;-65
2021/10/09 12:13:07;;;;;;;;;20.50;19.50;;;;;17.75;53.26;102155.78;6341415;22;45216;-65
2021/10/09 12:15:33;;;;;;;;;23.00;22.00;;;;;17.77;52.86;102145.81;6341066;22;45302;-65
2021/10/09 12:18:00;;;;;;;;;25.00;23.00;;;;;17.80;52.33;102146.63;6313330;22;46258;-65
2021/10/09 12:20:29;;;;;;;;;19.00;19.00;;;;;17.84;53.15;102153.66;6341743;22;45247;-65
2021/10/09 12:22:56;;;;;;;;;18.00;18.00;;;;;17.83;52.85;102138.41;6341604;22;45155;-65
2021/10/09 12:25:26;;;;;;;;;17.00;17.00;;;;;17.87;52.00;102143.63;6341976;22;45372;-65
2021/10/09 12:27:57;;;;;;;;;16.75;16.50;;;;;17.89;52.40;102135.47;6340924;22;46885;-65
2021/10/09 12:30:37;;;;;;;;;21.75;21.00;;;;;17.92;52.49;102146.16;6341290;22;45592;-65
2021/10/09 12:33:02;;;;;;;;;19.00;19.00;;;;;17.89;52.17;102133.66;6314429;22;45243;-65
2021/10/09 12:35:30;;;;;;;;;22.25;18.75;;;;;17.94;51.82;102146.97;6341335;22;45179;-65
2021/10/09 12:38:03;;;;;;;;;22.00;21.00;;;;;17.96;51.93;102142.41;6341130;22;45423;-65
2021/10/09 12:40:42;;;;;;;;;22.75;21.50;;;;;17.83;52.33;102116.81;6341622;22;45226;-65
2021/10/09 12:43:12;;;;;;;;;21.25;19.50;;;;;17.89;52.06;102111.16;6341456;22;45330;-65
2021/10/09 12:45:38;;;;;;;;;17.75;17.75;;;;;18.04;52.12;102139.34;6341097;22;45425;-65
2021/10/09 12:48:04;;;;;;;;;22.75;21.75;;;;;18.07;52.00;102129.28;6353633;22;45343;-65
2021/10/09 12:50:33;;;;;;;;;23.50;21.25;;;;;18.08;51.64;102122.09;6372719;22;45290;-65
2021/10/09 12:52:59;;;;;;;;;20.25;19.25;;;;;18.08;51.61;102114.00;6373349;22;45247;-65
2021/10/09 12:58:10;;;;;;;;;18.25;18.25;;;;;18.08;51.27;102103.19;6371873;22;45446;-65
2021/10/09 13:00:38;;;;;;;;;18.75;18.50;;;;;18.18;51.70;102119.88;6372881;22;45211;-65
2021/10/09 13:03:11;;;;;;;;;20.00;19.00;;;;;18.15;51.09;102120.88;6344667;22;45335;-71
2021/10/09 13:05:39;;;;;;;;;16.50;16.25;;;;;17.74;51.79;102055.91;6344011;22;45309;-71
2021/10/09 13:08:05;;;;;;;;;21.25;19.75;;;;;17.93;50.68;102083.09;6343662;22;45231;-71
2021/10/09 13:10:38;;;;;;;;;20.75;20.00;;;;;18.07;51.47;102104.97;6344595;22;45544;-72
2021/10/09 13:13:04;;;;;;;;;23.50;19.75;;;;;18.12;51.35;102102.09;6373367;22;45166;-72
2021/10/09 13:15:29;;;;;;;;;24.00;21.25;;;;;18.04;51.64;102077.22;6370945;22;45106;-72
2021/10/09 13:17:54;;;;;;;;;16.50;15.25;;;;;18.00;51.28;102075.59;6344420;22;46866;-71
2021/10/09 13:20:22;;;;;;;;;14.75;11.75;;;;;18.04;51.08;102079.91;6371232;22;46064;-71
2021/10/09 13:22:47;;;;;;;;;20.25;20.25;;;;;17.87;50.91;102056.31;6373130;22;45375;-71
2021/10/09 13:25:13;;;;;;;;;19.25;18.25;;;;;17.95;50.61;102063.16;6344437;22;45764;-71
2021/10/09 13:27:38;;;;;;;;;22.50;19.00;;;;;18.05;50.95;102082.56;6372737;22;46375;-71
2021/10/09 13:30:04;;;;;;;;;20.50;19.75;;;;;17.93;51.29;102059.66;6344198;22;45250;-71
2021/10/09 13:32:30;;;;;;;;;22.25;20.00;;;;;18.20;50.96;102099.94;6344535;22;45316;-70
2021/10/09 13:34:55;;;;;;;;;20.50;19.50;;;;;17.95;50.80;102046.06;6372539;22;45390;-71
2021/10/09 13:37:22;;;;;;;;;17.75;16.75;;;;;18.10;51.09;102067.03;6344057;22;46785;-71
2021/10/09 13:39:58;;;;;;;;;;;;;;;;;;;;;
2021/10/09 13:42:25;;;;;;;;;21.50;17.75;;;;;18.21;51.28;102065.69;6371871;22;68929;-72
2021/10/09 13:44:50;;;;;;;;;19.00;19.00;;;;;18.41;50.97;102098.16;6344134;22;45250;-71
2021/10/09 13:47:15;;;;;;;;;24.75;22.75;;;;;18.35;50.65;102074.06;6372247;22;45574;-63
2021/10/09 13:49:41;;;;;;;;;21.50;19.00;;;;;18.48;50.49;102096.06;6372797;22;45325;-65
2021/10/09 13:52:07;;;;;;;;;21.00;18.50;;;;;18.41;50.66;102087.34;6372683;22;45281;-65
2021/10/09 13:54:32;;;;;;;;;25.75;21.25;;;;;18.43;50.55;102080.03;6372073;22;45330;-65
2021/10/09 13:56:57;;;;;;;;;18.50;16.50;;;;;18.49;50.86;102090.59;6372653;22;45259;-64
2021/10/09 13:59:23;;;;;;;;;19.50;16.00;;;;;18.49;50.97;102081.56;6372256;22;45389;-64
2021/10/09 14:01:49;;;;;;;;;19.25;18.75;;;;;18.54;50.80;102092.19;6373093;22;45388;-65
2021/10/09 14:04:14;;;;;;;;;18.75;18.75;;;;;18.47;50.60;102078.06;6374055;22;45364;-64
2021/10/09 14:06:39;;;;;;;;;22.50;19.00;;;;;18.58;51.07;102096.53;6373395;22;45951;-65
2021/10/09 14:09:05;;;;;;;;;19.50;18.25;;;;;18.58;50.29;102078.47;6372854;22;45332;-65
2021/10/09 14:11:31;;;;;;;;;20.50;18.75;;;;;18.58;50.66;102080.31;6374238;22;45330;-66
2021/10/09 14:13:57;;;;;;;;;20.75;18.25;;;;;18.62;50.32;102088.19;6345420;22;45280;-66
2021/10/09 14:16:22;;;;;;;;;19.50;17.50;;;;;18.59;50.00;102090.16;6373005;22;45233;-66
2021/10/09 14:18:47;;;;;;;;;14.00;14.00;;;;;18.54;49.74;102081.38;6373136;22;45325;-66
2021/10/09 14:21:13;;;;;;;;;19.50;16.00;;;;;18.56;49.32;102082.19;6373828;22;45245;-63